Time;durP1;ratioP1;P1;durP2;ratioP2;P2;SDS_P1;SDS_P2;PMS_P1;PMS_P2;Temp;Humidity;BMP_temperature;BMP_pressure;BME280_temperature;BME280_humidity;BME280_pressure;Samples;Min_cycle;Max_cycle;Signal;HPM_P1;HPM_P2
2022/06/16 00:02:22;;;;;;;4.25;2.90;;;;;;;15.94;51.49;100663.03;10315467;28;22193;-79
2022/06/16 00:07:27;;;;;;;5.70;3.47;;;;;;;15.94;51.10;100671.16;10323132;28;20051;-78
2022/06/16 00:12:30;;;;;;;6.15;3.28;;;;;;;16.04;50.80;100679.19;10329681;28;20475;-79
2022/06/16 00:17:33;;;;;;;4.78;3.13;;;;;;;15.38;51.47;100693.78;10288320;28;20136;-78
2022/06/16 00:22:38;;;;;;;10.85;3.58;;;;;;;15.54;51.34;100693.16;10325167;28;20173;-79
2022/06/16 00:27:41;;;;;;;5.43;3.42;;;;;;;15.53;50.73;100669.81;10314458;28;20105;-79
2022/06/16 00:32:44;;;;;;;9.20;3.58;;;;;;;15.54;50.64;100661.53;10341644;28;20096;-78
2022/06/16 00:37:48;;;;;;;7.63;5.15;;;;;;;15.39;51.17;100663.88;10320794;28;20050;-78
2022/06/16 00:42:51;;;;;;;5.72;2.72;;;;;;;15.56;50.81;100639.72;10319766;28;20471;-78
2022/06/16 00:47:54;;;;;;;6.10;2.78;;;;;;;15.67;51.05;100629.53;10307444;28;20089;-79
2022/06/16 00:52:58;;;;;;;5.90;3.00;;;;;;;15.64;50.60;100653.38;10309617;28;20073;-79
2022/06/16 00:58:02;;;;;;;4.47;3.10;;;;;;;15.59;50.86;100664.63;10329484;28;20159;-80
2022/06/16 01:03:05;;;;;;;6.82;2.88;;;;;;;15.40;51.24;100659.31;10324592;28;20061;-80
2022/06/16 01:08:10;;;;;;;6.22;2.55;;;;;;;15.03;51.79;100673.66;10309906;28;20180;-79
2022/06/16 01:13:44;;;;;;;5.00;3.00;;;;;;;15.11;51.99;100664.78;10332128;28;20054;-78
2022/06/16 01:18:56;;;;;;;4.70;2.70;;;;;;;15.15;50.89;100656.25;10314254;28;20546;-78
2022/06/16 01:24:34;;;;;;;9.02;2.83;;;;;;;15.15;51.57;100640.00;10312261;28;20057;-77
2022/06/16 01:29:47;;;;;;;6.38;2.78;;;;;;;15.10;51.87;100653.13;10300765;28;20042;-78
2022/06/16 01:34:58;;;;;;;7.47;2.95;;;;;;;14.94;51.79;100659.13;10342636;28;20046;-79
2022/06/16 01:40:09;;;;;;;4.43;3.10;;;;;;;14.44;52.64;100656.66;10328223;28;20080;-78
2022/06/16 01:45:19;;;;;;;4.78;3.08;;;;;;;14.78;52.61;100656.19;10333782;28;20053;-77
2022/06/16 01:50:29;;;;;;;4.30;2.85;;;;;;;14.90;52.12;100673.13;10371068;28;20108;-79
2022/06/16 01:55:36;;;;;;;6.40;3.17;;;;;;;14.72;52.32;100689.22;10352760;28;20057;-80
2022/06/16 02:00:43;;;;;;;6.40;2.95;;;;;;;14.75;52.87;100686.22;10344927;28;20049;-77
2022/06/16 02:05:53;;;;;;;5.63;2.72;;;;;;;14.79;52.94;100666.88;10363037;28;20131;-79
2022/06/16 02:11:00;;;;;;;5.30;2.85;;;;;;;14.78;52.55;100676.00;10382318;28;20060;-78
2022/06/16 02:16:08;;;;;;;5.78;3.35;;;;;;;14.72;53.09;100660.31;10362707;28;20049;-78
2022/06/16 02:21:18;;;;;;;8.93;3.17;;;;;;;14.68;53.50;100647.25;10351417;28;20042;-77
2022/06/16 02:26:21;;;;;;;3.50;2.60;;;;;;;14.56;53.58;100677.16;10367766;28;20112;-78
2022/06/16 02:31:43;;;;;;;5.82;2.80;;;;;;;14.41;54.71;100665.06;10344515;28;20053;-78
2022/06/16 02:37:12;;;;;;;7.43;3.53;;;;;;;14.05;55.19;100671.97;10336584;28;20053;-79
2022/06/16 02:42:20;;;;;;;5.78;2.88;;;;;;;13.94;56.17;100665.69;10347806;28;20087;-78
2022/06/16 02:47:45;;;;;;;5.82;2.80;;;;;;;14.08;55.96;100671.69;10393010;28;20045;-79
2022/06/16 02:52:58;;;;;;;5.60;3.05;;;;;;;13.71;57.05;100661.50;10365252;28;20069;-79
2022/06/16 02:58:03;;;;;;;4.28;3.10;;;;;;;13.79;57.26;100666.22;10341831;28;20401;-78
2022/06/16 03:03:22;;;;;;;5.97;3.13;;;;;;;13.65;57.44;100676.41;10344133;28;20057;-79
2022/06/16 03:08:40;;;;;;;8.60;3.25;;;;;;;13.59;57.73;100678.81;10360835;28;20521;-79
2022/06/16 03:13:44;;;;;;;8.63;3.30;;;;;;;13.77;57.56;100679.88;10372595;28;20056;-80
2022/06/16 03:19:01;;;;;;;5.30;3.30;;;;;;;13.63;57.82;100688.34;10352105;28;20057;-79
2022/06/16 03:24:06;;;;;;;6.63;3.58;;;;;;;13.69;57.94;100674.31;10346621;28;20049;-80
2022/06/16 03:29:10;;;;;;;5.68;3.45;;;;;;;13.87;57.71;100672.63;10355617;28;20177;-79
2022/06/16 03:34:15;;;;;;;7.50;3.50;;;;;;;14.07;57.30;100678.94;10357271;28;20085;-79
2022/06/16 03:39:19;;;;;;;7.57;3.53;;;;;;;13.98;57.11;100689.72;10335298;28;20042;-78
2022/06/16 03:44:26;;;;;;;7.07;3.38;;;;;;;13.96;57.28;100678.19;10351560;28;20060;-76
2022/06/16 03:49:31;;;;;;;5.80;3.22;;;;;;;14.10;57.44;100686.78;10363852;28;20050;-79
2022/06/16 03:54:35;;;;;;;3.97;2.90;;;;;;;13.83;57.47;100694.69;10358446;28;20050;-78
2022/06/16 03:59:41;;;;;;;6.20;3.17;;;;;;;13.67;58.48;100712.22;10359300;28;20049;-80
2022/06/16 04:04:56;;;;;;;8.52;3.72;;;;;;;13.30;59.37;100719.97;10353565;28;20060;-78
2022/06/16 04:09:59;;;;;;;7.80;3.50;;;;;;;13.30;60.01;100724.53;10359582;28;21136;-79
2022/06/16 04:15:04;;;;;;;6.00;3.60;;;;;;;12.88;61.52;100738.88;10369450;28;20138;-79
2022/06/16 04:20:13;;;;;;;9.85;4.57;;;;;;;12.94;61.78;100753.69;10365345;28;20038;-79
2022/06/16 04:25:51;;;;;;;10.05;3.60;;;;;;;13.12;61.11;100762.06;10323177;28;20273;-77
2022/06/16 04:31:00;;;;;;;7.97;3.92;;;;;;;13.63;60.29;100758.50;10362140;28;20132;-78
2022/06/16 04:36:10;;;;;;;4.82;3.10;;;;;;;13.89;59.74;100765.16;10377706;28;20050;-78
2022/06/16 04:41:19;;;;;;;7.07;3.88;;;;;;;14.09;59.23;100771.47;10355744;28;21162;-80
2022/06/16 04:46:28;;;;;;;5.75;4.18;;;;;;;14.04;59.33;100764.78;10381878;28;20045;-81
2022/06/16 04:51:32;;;;;;;8.30;4.35;;;;;;;14.11;59.40;100763.25;10372550;28;20046;-80
2022/06/16 04:56:36;;;;;;;6.63;4.18;;;;;;;13.86;59.78;100781.66;10371236;28;20072;-79
2022/06/16 05:01:56;;;;;;;7.80;4.43;;;;;;;13.21;61.54;100785.53;10350626;28;20053;-80
2022/06/16 05:07:20;;;;;;;5.68;4.60;;;;;;;13.73;61.14;100777.47;10366093;28;20049;-79
2022/06/16 05:12:31;;;;;;;6.30;4.10;;;;;;;14.09;60.56;100792.25;10349762;28;20456;-79
2022/06/16 05:18:04;;;;;;;7.60;4.00;;;;;;;14.55;59.43;100798.94;10300718;28;20114;-80
2022/06/16 05:23:21;;;;;;;10.00;4.15;;;;;;;14.90;58.62;100798.38;10362662;28;20122;-80
2022/06/16 05:28:24;;;;;;;6.75;4.20;;;;;;;15.19;57.78;100811.91;10354796;28;20053;-78
2022/06/16 05:33:49;;;;;;;10.93;4.78;;;;;;;15.45;57.29;100814.03;10343113;28;20054;-78
2022/06/16 05:39:11;;;;;;;11.30;4.68;;;;;;;15.45;56.97;100824.84;10355766;28;20049;-79
2022/06/16 05:44:44;;;;;;;5.82;3.92;;;;;;;15.62;57.05;100821.38;10307508;28;20057;-79
2022/06/16 05:50:18;;;;;;;4.43;3.60;;;;;;;15.87;56.86;100821.72;10315326;28;20599;-77
2022/06/16 05:55:22;;;;;;;7.30;3.03;;;;;;;16.06;56.06;100823.50;10352297;28;20057;-79
2022/06/16 06:00:27;;;;;;;4.85;3.20;;;;;;;16.21;55.42;100830.16;10360154;28;20075;-80
2022/06/16 06:05:31;;;;;;;5.38;3.17;;;;;;;16.30;54.37;100831.13;10359561;28;20092;-78
2022/06/16 06:21:17;;;;;;;4.45;1.80;;;;;;;16.21;53.89;100850.97;10364404;28;20177;-78
2022/06/16 06:26:21;;;;;;;4.78;1.80;;;;;;;16.63;53.04;100842.38;10361231;28;20470;-78
2022/06/16 06:31:24;;;;;;;2.97;1.30;;;;;;;17.12;51.34;100843.69;10354845;28;20152;-79
2022/06/16 06:36:29;;;;;;;2.30;1.30;;;;;;;17.27;49.34;100841.28;10349338;28;20062;-78
2022/06/16 06:41:33;;;;;;;2.30;1.00;;;;;;;17.21;48.91;100842.78;10346708;28;20057;-77
2022/06/16 06:46:36;;;;;;;1.83;1.10;;;;;;;17.04;48.82;100849.91;10355301;28;20080;-77
2022/06/16 06:51:40;;;;;;;4.05;1.00;;;;;;;16.95;48.70;100858.97;10368900;28;20112;-79
2022/06/16 06:56:44;;;;;;;2.60;0.70;;;;;;;17.29;48.52;100858.28;10356717;28;20431;-79
2022/06/16 07:01:48;;;;;;;1.27;0.90;;;;;;;17.83;47.66;100864.47;10352784;28;20205;-78
2022/06/16 07:06:51;;;;;;;1.67;0.80;;;;;;;18.06;46.82;100875.66;10348533;28;20187;-78
2022/06/16 07:11:55;;;;;;;2.33;0.80;;;;;;;18.47;45.93;100878.56;10368251;28;20050;-82
2022/06/16 07:16:58;;;;;;;1.77;0.75;;;;;;;19.54;42.65;100886.97;10359134;28;20056;-81
2022/06/16 07:22:01;;;;;;;1.85;0.70;;;;;;;21.79;39.37;100881.81;10371128;28;20496;-81
2022/06/16 07:27:07;;;;;;;1.35;0.73;;;;;;;23.93;35.16;100884.13;10366647;28;20112;-81
2022/06/16 07:32:10;;;;;;;1.95;0.93;;;;;;;26.76;31.38;100873.91;10361837;28;20149;-82
2022/06/16 07:37:14;;;;;;;1.27;1.00;;;;;;;25.39;32.18;100890.22;10395418;28;20068;-81
2022/06/16 07:42:19;;;;;;;2.08;0.85;;;;;;;24.48;34.27;100890.59;10382050;28;20050;-81
2022/06/16 07:47:22;;;;;;;2.15;0.70;;;;;;;26.18;31.94;100894.03;10370886;28;20046;-82
2022/06/16 07:52:25;;;;;;;2.85;0.93;;;;;;;26.29;31.48;100892.53;10363287;28;20068;-84
2022/06/16 07:57:31;;;;;;;1.13;0.70;;;;;;;25.41;32.68;100909.28;10386642;28;20138;-83
2022/06/16 08:02:33;;;;;;;3.63;1.00;;;;;;;22.56;35.47;100925.28;10354404;28;20123;-81
2022/06/16 08:07:36;;;;;;;2.28;0.90;;;;;;;22.38;37.01;100917.44;10349118;28;20077;-82
2022/06/16 08:12:41;;;;;;;3.33;1.17;;;;;;;22.45;37.16;100910.19;10635799;22;20058;-81
2022/06/16 08:17:48;;;;;;;1.73;0.80;;;;;;;22.56;36.57;100911.59;10314022;28;20183;-80
2022/06/16 08:22:50;;;;;;;2.67;1.02;;;;;;;22.66;37.00;100909.41;10331921;28;20050;-79
2022/06/16 08:27:55;;;;;;;2.35;0.95;;;;;;;22.87;36.51;100907.75;10335929;28;20065;-81
2022/06/16 08:33:02;;;;;;;2.30;0.77;;;;;;;22.82;36.54;100916.56;10350931;28;20163;-80
2022/06/16 08:38:05;;;;;;;3.90;1.33;;;;;;;22.72;37.36;100922.31;10328088;28;20052;-82
2022/06/16 08:43:16;;;;;;;2.50;1.13;;;;;;;20.97;39.77;100926.13;10328830;28;20046;-80
2022/06/16 08:48:29;;;;;;;1.15;0.70;;;;;;;22.21;39.07;100921.38;10330478;28;20446;-81
2022/06/16 08:54:04;;;;;;;2.00;0.98;;;;;;;22.63;38.09;100937.16;10324138;28;20082;-79
2022/06/16 08:59:13;;;;;;;3.85;0.90;;;;;;;22.87;38.09;100937.88;10314288;28;20061;-81
2022/06/16 09:04:23;;;;;;;2.53;0.98;;;;;;;23.39;36.69;100926.69;10305269;28;20050;-80
2022/06/16 09:15:13;;;;;;;1.27;0.70;;;;;;;23.87;35.05;100921.44;10289736;28;20058;-80
2022/06/16 09:20:23;;;;;;;2.80;0.90;;;;;;;23.90;35.78;100931.16;10323883;28;20144;-81
2022/06/16 09:25:41;;;;;;;2.20;0.75;;;;;;;23.40;34.88;100928.38;10294345;28;20126;-80
2022/06/16 09:30:52;;;;;;;2.38;0.82;;;;;;;23.66;34.85;100916.78;10304756;28;20105;-81
2022/06/16 09:36:00;;;;;;;1.38;0.88;;;;;;;24.08;34.80;100939.75;10318201;28;20145;-81
2022/06/16 09:42:32;;;;;;;0.88;0.80;;;;;;;24.41;34.13;100932.78;10297916;28;20157;-80
2022/06/16 09:46:37;;;;;;;0.90;0.60;;;;;;;24.65;34.79;100925.94;10303717;28;20534;-81
2022/06/16 09:51:48;;;;;;;1.80;0.60;;;;;;;24.83;33.37;100928.16;10295676;28;20042;-80
2022/06/16 09:56:54;;;;;;;2.38;0.75;;;;;;;24.56;33.69;100935.41;10299075;28;20050;-82
2022/06/16 10:02:01;;;;;;;1.30;0.55;;;;;;;25.04;32.57;100924.44;10309915;28;20049;-81
2022/06/16 10:07:14;;;;;;;2.33;0.68;;;;;;;24.46;33.00;100930.28;10299760;28;21289;-81
2022/06/16 10:12:24;;;;;;;1.13;0.60;;;;;;;24.40;33.85;100931.09;10319753;28;20038;-81
2022/06/16 10:17:29;;;;;;;1.45;0.75;;;;;;;24.86;32.23;100946.97;10320771;28;21167;-80
2022/06/16 10:22:36;;;;;;;4.05;0.73;;;;;;;24.94;32.44;100955.88;10320799;28;20049;-80
2022/06/16 10:27:44;;;;;;;1.60;0.90;;;;;;;25.02;32.90;100970.50;10324017;28;20094;-80
2022/06/16 10:33:09;;;;;;;0.70;0.60;;;;;;;25.41;32.60;100965.13;10317740;28;20133;-80
2022/06/16 10:38:12;;;;;;;3.47;0.80;;;;;;;25.53;32.13;100970.00;10324523;28;20088;-80
2022/06/16 10:43:18;;;;;;;1.58;0.60;;;;;;;25.90;31.89;100973.25;10320504;28;20503;-81
2022/06/16 10:48:29;;;;;;;1.75;0.65;;;;;;;25.87;31.11;100974.53;10326964;28;20057;-81
2022/06/16 10:53:35;;;;;;;2.90;0.50;;;;;;;26.15;29.11;100990.81;10317403;28;20141;-81
2022/06/16 10:58:49;;;;;;;1.05;0.50;;;;;;;26.06;29.89;101003.09;10322051;28;20057;-81
2022/06/16 11:04:05;;;;;;;3.15;0.70;;;;;;;25.92;30.90;101007.75;10304364;28;20107;-81
2022/06/16 11:09:09;;;;;;;2.25;0.80;;;;;;;24.84;31.80;101010.34;10317916;28;20054;-82
2022/06/16 11:14:15;;;;;;;3.75;0.90;;;;;;;25.95;31.56;101012.84;10320167;28;20050;-80
2022/06/16 11:19:28;;;;;;;0.90;0.80;;;;;;;25.75;31.72;101010.06;10312514;28;20585;-77
2022/06/16 11:24:34;;;;;;;3.20;0.95;;;;;;;26.42;30.96;100996.31;10328629;28;20062;-81
2022/06/16 11:29:38;;;;;;;0.85;0.70;;;;;;;26.76;31.04;100981.38;10323917;28;20050;-81
2022/06/16 11:34:43;;;;;;;1.40;0.75;;;;;;;27.14;30.86;100977.88;10321810;28;20057;-80
2022/06/16 11:40:00;;;;;;;6.35;1.25;;;;;;;26.73;29.09;100990.94;10306466;28;20065;-80
2022/06/16 11:45:10;;;;;;;3.65;1.00;;;;;;;27.32;30.38;100990.94;10281879;28;20144;-79
2022/06/16 11:50:27;;;;;;;1.50;0.85;;;;;;;28.13;29.33;101011.41;10321987;28;20060;-79
2022/06/16 11:55:36;;;;;;;2.80;1.20;;;;;;;27.84;28.12;101014.59;10307059;28;20062;-78
2022/06/16 12:00:46;;;;;;;2.25;1.27;;;;;;;27.94;28.56;101013.22;10310488;28;20098;-80
2022/06/16 12:06:17;;;;;;;2.45;1.30;;;;;;;27.39;30.73;101019.31;10330840;28;20081;-78
2022/06/16 12:11:28;;;;;;;1.42;1.20;;;;;;;28.31;29.46;101008.69;10333461;28;20061;-79
2022/06/16 12:17:12;;;;;;;3.23;1.50;;;;;;;27.91;29.16;101011.75;10336233;28;20168;-79
2022/06/16 12:22:27;;;;;;;4.15;1.20;;;;;;;28.17;28.97;101007.13;10328995;28;20042;-79
2022/06/16 12:27:40;;;;;;;3.42;1.40;;;;;;;29.10;28.59;101004.25;10333898;28;20089;-78
2022/06/16 12:32:52;;;;;;;4.07;1.48;;;;;;;29.06;27.47;101000.25;10332797;28;20058;-78
2022/06/16 12:38:00;;;;;;;2.30;1.38;;;;;;;27.64;30.02;101010.28;10320693;28;20093;-77
2022/06/16 12:43:08;;;;;;;3.22;1.40;;;;;;;27.84;30.40;101008.22;10321667;28;20190;-77
2022/06/16 12:48:15;;;;;;;2.55;1.55;;;;;;;28.15;29.13;101021.16;10329061;28;20050;-76
2022/06/16 12:53:25;;;;;;;2.58;1.42;;;;;;;25.81;32.33;101039.50;10332593;28;20058;-78
2022/06/16 12:58:32;;;;;;;2.08;1.20;;;;;;;27.28;30.81;101031.88;10306101;28;20105;-78
2022/06/16 13:03:40;;;;;;;4.03;1.70;;;;;;;28.59;28.55;101035.00;10332985;28;20136;-78
2022/06/16 13:08:49;;;;;;;2.55;1.50;;;;;;;29.14;29.48;101026.75;10326394;28;20494;-78
2022/06/16 13:13:57;;;;;;;1.75;1.30;;;;;;;28.59;29.17;101010.16;10335101;28;20124;-78
2022/06/16 13:19:05;;;;;;;1.88;1.70;;;;;;;27.86;29.28;101000.53;10343061;28;20054;-78
2022/06/16 13:24:21;;;;;;;3.85;1.85;;;;;;;28.30;29.33;101000.63;10343561;28;20046;-79
2022/06/16 13:29:33;;;;;;;4.97;1.70;;;;;;;29.18;28.47;101000.28;10338220;28;21463;-77
2022/06/16 13:34:51;;;;;;;3.35;1.55;;;;;;;30.48;26.52;101004.22;10341959;28;20072;-79
2022/06/16 13:40:12;;;;;;;3.20;1.80;;;;;;;30.68;26.14;100987.22;10334152;28;20070;-79
2022/06/16 13:45:38;;;;;;;5.28;1.63;;;;;;;29.02;28.28;100989.84;10332542;28;20066;-79
2022/06/16 13:50:43;;;;;;;2.70;1.33;;;;;;;27.88;29.57;101003.94;10340383;28;20054;-79
2022/06/16 13:55:55;;;;;;;3.17;1.55;;;;;;;27.10;30.90;100994.00;10334318;28;20050;-80
2022/06/16 14:01:18;;;;;;;3.00;1.15;;;;;;;29.56;27.92;100977.81;10345547;28;20069;-78
2022/06/16 14:06:23;;;;;;;;;;;;;;;29.95;27.56;100991.28;10333605;28;20578;-78
2022/06/16 14:11:29;;;;;;;5.43;1.63;;;;;;;29.59;27.85;100973.72;10344329;28;19926;-80
2022/06/16 14:16:35;;;;;;;3.08;1.10;;;;;;;29.74;27.00;100974.16;10315306;28;20077;-78
2022/06/16 14:21:47;;;;;;;2.45;1.50;;;;;;;29.90;26.14;100975.41;10318119;28;20050;-79
2022/06/16 14:26:52;;;;;;;3.47;1.40;;;;;;;28.68;28.24;100984.72;10323629;28;20105;-79
2022/06/16 14:32:01;;;;;;;3.60;1.60;;;;;;;28.49;28.94;100988.53;10339668;28;20053;-79
2022/06/16 14:37:11;;;;;;;2.63;1.40;;;;;;;27.63;29.63;100998.41;10339014;28;21192;-80
2022/06/16 14:42:18;;;;;;;2.05;1.33;;;;;;;27.79;29.55;101011.66;10328111;28;20047;-78
2022/06/16 14:47:31;;;;;;;4.00;1.38;;;;;;;28.90;28.85;101006.38;10328507;28;20050;-80
2022/06/16 14:52:39;;;;;;;3.65;1.20;;;;;;;28.97;27.60;101003.53;10316313;28;20410;-80
2022/06/16 14:57:46;;;;;;;2.72;1.20;;;;;;;30.54;28.07;101011.56;10313325;28;21239;-80
2022/06/16 15:02:49;;;;;;;2.30;1.27;;;;;;;29.09;27.64;101019.13;10326082;28;20499;-78
2022/06/16 15:07:53;;;;;;;3.67;1.23;;;;;;;29.45;27.56;101017.38;10330248;28;20046;-78
2022/06/16 15:13:00;;;;;;;4.95;1.10;;;;;;;30.32;26.94;101024.34;10327023;28;20054;-79
2022/06/16 15:18:13;;;;;;;3.28;0.98;;;;;;;30.28;26.04;101014.81;10319842;28;20062;-79
2022/06/16 15:23:18;;;;;;;5.13;1.50;;;;;;;27.35;30.26;101023.59;10311177;28;20054;-78
2022/06/16 15:28:25;;;;;;;1.13;0.98;;;;;;;27.39;29.90;101025.66;10346778;28;20719;-78
2022/06/16 15:38:51;;;;;;;2.47;1.40;;;;;;;27.01;30.44;101039.41;10347541;28;20053;-78
2022/06/16 15:44:06;;;;;;;5.13;1.38;;;;;;;26.33;31.18;101048.03;10368422;28;20232;-77
2022/06/16 15:49:11;;;;;;;1.40;1.30;;;;;;;25.90;31.51;101047.56;10358344;28;20117;-79
2022/06/16 15:54:14;;;;;;;4.50;1.42;;;;;;;24.91;32.42;101055.22;10331912;28;20057;-79
2022/06/16 15:59:18;;;;;;;3.30;1.48;;;;;;;25.02;33.49;101047.44;10334872;28;20045;-77
2022/06/16 16:04:24;;;;;;;2.33;1.38;;;;;;;25.46;33.25;101062.66;10326736;28;20511;-78
2022/06/16 16:09:28;;;;;;;3.05;1.58;;;;;;;25.39;33.41;101057.13;10316391;28;20061;-78
2022/06/16 16:14:53;;;;;;;1.98;1.23;;;;;;;25.28;33.23;101060.47;10314712;28;20054;-79
2022/06/16 16:19:58;;;;;;;3.63;1.88;;;;;;;26.66;31.59;101060.91;10305210;28;20054;-78
2022/06/16 16:25:01;;;;;;;2.90;1.40;;;;;;;27.67;29.57;101057.56;10333761;28;20125;-78
2022/06/16 16:30:07;;;;;;;6.03;1.70;;;;;;;27.99;30.55;101052.09;10326193;28;20113;-78
2022/06/16 16:35:13;;;;;;;4.85;1.15;;;;;;;32.17;25.83;101038.16;10327259;28;20049;-79
2022/06/16 16:42:59;;;;;;;4.55;1.50;;;;;;;34.02;23.79;101030.22;10320266;28;20061;-79
2022/06/16 16:45:49;;;;;;;2.20;1.30;;;;;;;36.87;21.04;101011.72;10322233;28;20569;-79
2022/06/16 16:51:14;;;;;;;2.38;1.38;;;;;;;35.68;21.57;101005.41;10293933;28;20057;-79
2022/06/16 16:56:19;;;;;;;1.73;1.20;;;;;;;36.99;20.40;101004.63;10330556;28;20054;-80
2022/06/16 17:01:27;;;;;;;1.50;1.10;;;;;;;36.69;20.44;100997.19;10305244;28;20054;-80
2022/06/16 17:06:30;;;;;;;2.88;1.23;;;;;;;36.76;20.30;100994.09;10330715;28;20418;-80
2022/06/16 17:11:54;;;;;;;1.65;1.10;;;;;;;34.10;22.29;100996.31;10334134;28;20042;-80
2022/06/16 17:16:59;;;;;;;2.05;1.30;;;;;;;34.96;22.13;101003.47;10329653;28;20050;-78
2022/06/16 17:22:04;;;;;;;3.35;1.30;;;;;;;34.86;21.80;101005.13;10312915;28;20403;-78
2022/06/16 17:27:08;;;;;;;2.20;1.20;;;;;;;31.65;24.87;101016.09;10343275;28;20133;-78
2022/06/16 17:32:18;;;;;;;3.60;1.23;;;;;;;29.49;27.02;101015.84;10333212;28;20058;-78
2022/06/16 17:37:24;;;;;;;4.15;1.20;;;;;;;28.90;27.38;101021.03;10292115;28;20074;-79
2022/06/16 17:42:28;;;;;;;4.20;1.40;;;;;;;28.14;28.07;101004.81;10306893;28;20058;-79
2022/06/16 17:47:32;;;;;;;1.33;1.20;;;;;;;27.78;28.21;101000.81;10309663;28;20089;-79
2022/06/16 18:03:18;;;;;;;3.85;1.30;;;;;;;26.21;30.89;100981.69;10333921;28;20692;-79
2022/06/16 18:08:25;;;;;;;1.75;1.23;;;;;;;25.59;32.04;100974.69;10338390;28;20152;-79
2022/06/16 18:13:29;;;;;;;3.63;1.40;;;;;;;24.83;33.19;100977.59;10326768;28;20050;-79
2022/06/16 18:18:39;;;;;;;1.83;1.30;;;;;;;24.10;34.22;100987.03;10314315;28;20460;-80
2022/06/16 18:23:43;;;;;;;3.67;1.27;;;;;;;23.46;35.95;100978.84;10316171;28;20046;-81
2022/06/16 18:28:49;;;;;;;3.53;1.58;;;;;;;23.06;35.74;100994.78;10313184;28;20050;-79
2022/06/16 18:33:53;;;;;;;5.45;1.42;;;;;;;22.49;36.86;100999.09;10320751;28;20086;-78
2022/06/16 18:39:10;;;;;;;4.63;1.40;;;;;;;22.18;36.80;101004.69;10313381;28;20050;-77
2022/06/16 18:44:15;;;;;;;3.50;1.35;;;;;;;22.08;36.97;101009.59;10309927;28;20045;-78
2022/06/16 18:49:19;;;;;;;1.60;1.23;;;;;;;22.00;38.01;101013.25;10305491;28;21145;-78
2022/06/16 18:54:22;;;;;;;1.90;1.25;;;;;;;21.97;38.07;101005.41;10330540;28;21168;-78
2022/06/16 18:59:25;;;;;;;1.45;1.30;;;;;;;21.89;38.16;101014.53;10329905;28;20081;-78
2022/06/16 19:04:31;;;;;;;4.53;1.80;;;;;;;21.81;37.63;101014.59;10332207;28;21079;-78
2022/06/16 19:09:33;;;;;;;2.58;1.50;;;;;;;21.60;38.41;101022.56;10335944;28;20057;-77
2022/06/16 19:14:36;;;;;;;2.85;1.65;;;;;;;21.41;38.73;101023.91;10337520;28;20092;-79
2022/06/16 19:19:42;;;;;;;1.70;1.23;;;;;;;20.58;41.31;101052.53;10322079;28;20046;-80
2022/06/16 19:24:47;;;;;;;4.40;1.83;;;;;;;20.62;40.88;101056.63;10336762;28;20656;-80
2022/06/16 19:29:50;;;;;;;3.13;1.40;;;;;;;21.13;40.20;101065.38;10327786;28;20057;-79
2022/06/16 19:34:54;;;;;;;1.75;1.20;;;;;;;21.35;40.67;101071.06;10337723;28;21357;-80
2022/06/16 19:39:57;;;;;;;4.03;1.50;;;;;;;21.25;40.05;101084.94;10326382;28;20837;-80
2022/06/16 19:55:53;;;;;;;2.80;1.70;;;;;;;20.63;42.06;101112.09;10336609;28;20176;-79
2022/06/16 20:00:58;;;;;;;2.95;1.45;;;;;;;20.55;42.14;101127.44;10350078;28;20419;-80
2022/06/16 20:06:07;;;;;;;1.95;1.25;;;;;;;20.32;43.20;101138.19;10356007;28;20049;-79
2022/06/16 20:11:10;;;;;;;3.20;1.45;;;;;;;20.11;42.55;101146.00;10328087;28;20058;-79
2022/06/16 20:16:13;;;;;;;1.65;1.27;;;;;;;19.78;43.03;101153.25;10336846;28;20050;-78
2022/06/16 20:21:22;;;;;;;2.28;1.58;;;;;;;19.81;43.62;101161.09;10310685;28;20046;-79
2022/06/16 20:26:26;;;;;;;3.22;2.05;;;;;;;19.66;43.26;101161.75;10318229;28;20681;-78
2022/06/16 20:31:29;;;;;;;6.43;2.33;;;;;;;19.46;43.85;101162.97;10336981;28;20412;-79
2022/06/16 20:36:33;;;;;;;2.13;1.60;;;;;;;19.44;44.21;101160.44;10324725;28;20121;-79
2022/06/16 20:46:58;;;;;;;2.13;1.70;;;;;;;19.23;44.88;101181.78;10328499;28;20058;-79
2022/06/16 20:52:06;;;;;;;2.63;1.73;;;;;;;19.14;45.03;101193.63;10362334;28;20137;-78
2022/06/16 21:02:32;;;;;;;5.22;1.83;;;;;;;18.98;45.66;101187.06;10358054;28;20068;-79
2022/06/16 21:07:37;;;;;;;2.17;1.80;;;;;;;18.94;45.66;101212.91;10355452;28;20049;-80
2022/06/16 21:12:40;;;;;;;4.95;2.13;;;;;;;18.83;46.07;101210.44;10340485;28;20058;-79
2022/06/16 21:17:43;;;;;;;3.50;1.80;;;;;;;18.77;45.89;101216.47;10326530;28;20345;-79
2022/06/16 21:22:48;;;;;;;3.17;1.95;;;;;;;18.83;45.80;101199.53;10333507;28;20046;-77
2022/06/16 21:27:51;;;;;;;5.35;1.92;;;;;;;18.80;46.14;101200.72;10305853;28;20054;-79
2022/06/16 21:32:56;;;;;;;3.55;2.00;;;;;;;18.61;46.70;101181.81;10303338;28;20127;-79
2022/06/16 21:38:01;;;;;;;3.13;1.98;;;;;;;18.67;46.41;101177.63;10356757;28;20064;-78
2022/06/16 21:43:07;;;;;;;3.05;2.25;;;;;;;18.51;46.84;101160.16;10333413;28;20054;-78
2022/06/16 21:48:16;;;;;;;4.80;2.25;;;;;;;18.50;46.88;101157.59;10333208;28;20108;-78
2022/06/16 21:53:21;;;;;;;2.95;2.13;;;;;;;18.47;46.78;101152.47;10338388;28;20046;-79
2022/06/16 21:58:24;;;;;;;5.18;2.22;;;;;;;18.40;47.08;101154.94;10326723;28;20046;-79
2022/06/16 22:03:31;;;;;;;2.88;2.30;;;;;;;18.32;47.26;101160.31;10328102;28;20050;-79
2022/06/16 22:08:35;;;;;;;5.15;2.20;;;;;;;18.28;47.17;101159.78;10339084;28;20057;-79
2022/06/16 22:13:39;;;;;;;2.60;2.10;;;;;;;18.20;47.56;101153.41;10332015;28;20061;-79
2022/06/16 22:18:42;;;;;;;3.55;2.13;;;;;;;18.16;47.52;101152.88;10351818;28;20053;-78
2022/06/16 22:23:47;;;;;;;2.60;2.10;;;;;;;18.18;47.94;101159.00;10344923;28;20083;-78
2022/06/16 22:28:52;;;;;;;4.30;2.22;;;;;;;18.14;48.04;101149.47;10312075;28;20105;-79
2022/06/16 22:33:57;;;;;;;4.35;2.25;;;;;;;17.97;47.99;101164.75;10319241;28;20064;-79
2022/06/16 22:39:01;;;;;;;3.65;2.33;;;;;;;17.98;48.16;101154.75;10333873;28;20054;-77
2022/06/16 22:44:08;;;;;;;5.25;2.72;;;;;;;17.83;47.99;101162.53;10332053;28;20042;-79
2022/06/16 22:49:21;;;;;;;4.32;2.42;;;;;;;17.71;48.43;101159.16;10340010;28;20065;-79
2022/06/16 22:59:47;;;;;;;3.88;2.75;;;;;;;17.51;49.14;101176.59;10341795;28;20070;-79
2022/06/16 23:04:51;;;;;;;13.32;6.82;;;;;;;16.88;49.80;101183.50;10335561;28;20042;-79
2022/06/16 23:09:56;;;;;;;10.63;6.25;;;;;;;16.49;50.70;101170.00;10327347;28;20585;-78
2022/06/16 23:14:59;;;;;;;11.38;7.30;;;;;;;16.77;50.35;101179.09;10324871;28;20066;-78
2022/06/16 23:20:02;;;;;;;9.23;5.75;;;;;;;16.50;51.06;101187.97;10345158;28;21239;-79
2022/06/16 23:25:07;;;;;;;10.02;5.53;;;;;;;16.21;52.21;101182.53;10318275;28;20073;-79
2022/06/16 23:30:12;;;;;;;10.07;4.85;;;;;;;16.03;52.68;101178.78;10338043;28;20085;-79
2022/06/16 23:35:17;;;;;;;6.22;4.40;;;;;;;15.56;53.58;101192.94;10327436;28;20124;-78
2022/06/16 23:40:21;;;;;;;6.50;4.40;;;;;;;15.50;54.13;101217.88;10325018;28;20073;-79
2022/06/16 23:45:25;;;;;;;8.93;5.07;;;;;;;15.55;54.11;101209.31;10315465;28;21227;-78
2022/06/16 23:50:32;;;;;;;7.45;4.13;;;;;;;15.80;53.75;101216.97;10333573;28;20062;-79
2022/06/16 23:55:38;;;;;;;5.60;4.03;;;;;;;15.95;53.59;101216.56;10321740;28;20050;-78
